Terminal Aerodrome Forecast
Issued by NWS Mt. Holly, NJ

Home | Current Version | Previous Version | Text Only | Print | Product List | Glossary On
Versions: 1 2 3 4 5 6 7 8 9 10 11 12 13 14 15 16 17 18 19 20
000
FTUS41 KPHI 301900 AAA
TAFILG
TAF AMD
KILG 301956Z 3020/3118 34016G28KT P6SM BKN035
      TEMPO 3020/3022 1SM -SN BKN025
     FM302200 31021G37KT P6SM SCT030
     FM310800 31017G31KT P6SM SKC
     FM311400 31018G33KT P6SM SCT250=

USA.gov is the U.S. government's official web portal to all federal, state and local government web resources and services.